Weather History for Perryton, TX

Change the Weather History Date:

Friday, February 1, 2013

  Actual Average Record
Temperature  
Mean Temperature 34 °F -  
Max Temperature 53 °F 51 °F 80 °F (1989)
Min Temperature 14 °F 20 °F -3 °F (1979)
Degree Days  
Heating Degree Days 32    
Moisture  
Dew Point 19 °F    
Average Humidity 65    
Maximum Humidity 93    
Minimum Humidity 30    
Precipitation  
Precipitation 0.00 in - - ()
Sea Level Pressure  
Sea Level Pressure 30.17 in    
Wind  
Wind Speed 8 mph (South)    
Max Wind Speed 23 mph    
Max Gust Speed 30 mph    
Visibility 10 miles    
Events      
Averages and records for this station are not official NWS values.
T = Trace of Precipitation, MM = Missing Value Source: NWS Daily Summary

Daily Weather History Graph

Daily Weather History Graph

Search for Another Location

Airport:

Trip Planner

Search our weather history database for the weather conditions in past years. The results will help you decide how hot, cold, wet, or windy it might be!

Date:

Astronomy

Feb. 01, 2013 Rise Set
Actual Time 7:44 AM CST 6:09 PM CST
Civil Twilight 7:17 AM CST 6:36 PM CST
Nautical Twilight 6:46 AM CST 7:07 PM CST
Astronomical Twilight 6:15 AM CST 7:37 PM CST
Moon No Moon Rise 10:30 AM CST (2/1)
Length of Visible Light 11h 19m
Length of Day
10h 25m
Waning Gibbous, 70% of the Moon is Illuminated
Feb 1
Waning Gibbous
Feb 3
Last Quarter
Feb 10
New
Feb 17
First Quarter
Feb 25
Full

Hourly Weather History & Observations

Time (CST) Temp. Windchill Dew Point Humidity Pressure Visibility Wind Dir Wind Speed Gust Speed Precip Events Conditions
12:15 AM 21.2 °F 10.9 °F 17.6 °F 86% 30.28 in 10.0 mi ESE 9.2 mph - N/A   Clear
12:35 AM 21.2 °F 11.7 °F 15.8 °F 80% 30.29 in 10.0 mi SE 8.1 mph - N/A   Clear
12:55 AM 19.4 °F 10.4 °F 15.8 °F 86% 30.29 in 10.0 mi SE 6.9 mph - N/A   Clear
1:15 AM 19.4 °F 10.4 °F 15.8 °F 86% 30.28 in 10.0 mi ESE 6.9 mph - N/A   Clear
1:35 AM 19.4 °F 9.5 °F 15.8 °F 86% 30.28 in 10.0 mi ESE 8.1 mph - N/A   Clear
1:55 AM 19.4 °F 11.5 °F 15.8 °F 86% 30.29 in 10.0 mi SE 5.8 mph - N/A   Clear
2:15 AM 17.6 °F 12.3 °F 14.0 °F 86% 30.29 in 10.0 mi SSE 3.5 mph - N/A   Clear
2:35 AM 19.4 °F - 15.8 °F 86% 30.29 in 10.0 mi Calm Calm - N/A   Clear
2:55 AM 17.6 °F 10.7 °F 14.0 °F 86% 30.29 in 10.0 mi SSE 4.6 mph - N/A   Clear
3:15 AM 17.6 °F - 14.0 °F 86% 30.30 in 10.0 mi Calm Calm - N/A   Clear
3:35 AM 17.6 °F - 14.0 °F 86% 30.29 in 10.0 mi Calm Calm - N/A   Clear
3:55 AM 17.6 °F 12.3 °F 14.0 °F 86% 30.28 in 10.0 mi South 3.5 mph - N/A   Clear
4:15 AM 15.8 °F - 14.0 °F 93% 30.27 in 10.0 mi Calm Calm - N/A   Clear
4:35 AM 17.6 °F 12.3 °F 14.0 °F 86% 30.27 in 10.0 mi SSE 3.5 mph - N/A   Clear
4:55 AM 15.8 °F 8.6 °F 12.2 °F 86% 30.27 in 10.0 mi SSE 4.6 mph - N/A   Clear
5:15 AM 15.8 °F - 14.0 °F 93% 30.27 in 10.0 mi Calm Calm - N/A   Clear
5:35 AM 15.8 °F 8.6 °F 12.2 °F 86% 30.27 in 10.0 mi South 4.6 mph - N/A   Clear
5:55 AM 15.8 °F 10.2 °F 12.2 °F 86% 30.26 in 10.0 mi South 3.5 mph - N/A   Clear
6:15 AM 15.8 °F 10.2 °F 12.2 °F 86% 30.26 in 10.0 mi South 3.5 mph - N/A   Clear
6:35 AM 15.8 °F 10.2 °F 12.2 °F 86% 30.26 in 10.0 mi SSW 3.5 mph - N/A   Clear
6:55 AM 17.6 °F 12.3 °F 14.0 °F 86% 30.25 in 10.0 mi SSW 3.5 mph - N/A   Clear
7:15 AM 14.0 °F 5.1 °F 12.2 °F 93% 30.25 in 10.0 mi SSW 5.8 mph - N/A   Clear
7:35 AM 14.0 °F 3.9 °F 12.2 °F 93% 30.24 in 10.0 mi South 6.9 mph - N/A   Clear
7:55 AM 14.0 °F 5.1 °F 12.2 °F 93% 30.24 in 10.0 mi SSE 5.8 mph - N/A   Clear
8:15 AM 15.8 °F 8.6 °F 12.2 °F 86% 30.24 in 10.0 mi SSE 4.6 mph - N/A   Clear
8:35 AM 17.6 °F 12.3 °F 15.8 °F 93% 30.23 in 10.0 mi South 3.5 mph - N/A   Clear
8:55 AM 21.2 °F 14.9 °F 17.6 °F 86% 30.23 in 10.0 mi South 4.6 mph - N/A   Clear
9:15 AM 23.0 °F 13.1 °F 17.6 °F 80% 30.24 in 10.0 mi SSW 9.2 mph - N/A   Clear
9:35 AM 26.6 °F 16.2 °F 17.6 °F 69% 30.23 in 10.0 mi SSW 11.5 mph - N/A   Clear
9:55 AM 28.4 °F 17.5 °F 17.6 °F 64% 30.23 in 10.0 mi South 13.8 mph - N/A   Clear
10:15 AM 30.2 °F 20.2 °F 19.4 °F 64% 30.22 in 10.0 mi SSW 12.7 mph 17.3 mph N/A   Clear
10:35 AM 32.0 °F 19.5 °F 19.4 °F 60% 30.22 in 10.0 mi South 21.9 mph - N/A   Clear
10:55 AM 32.0 °F 19.8 °F 19.4 °F 60% 30.21 in 10.0 mi SSW 20.7 mph 27.6 mph N/A   Clear
11:15 AM 33.8 °F 21.6 °F 19.4 °F 56% 30.19 in 10.0 mi South 23.0 mph 26.5 mph N/A   Clear
11:35 AM 33.8 °F 21.9 °F 19.4 °F 56% 30.18 in 10.0 mi South 21.9 mph 29.9 mph N/A   Clear
11:55 AM 37.4 °F 26.4 °F 21.2 °F 52% 30.17 in 10.0 mi South 23.0 mph 27.6 mph N/A   Clear
12:15 PM 39.2 °F 29.3 °F 21.2 °F 49% 30.15 in 10.0 mi South 20.7 mph 27.6 mph N/A   Clear
12:35 PM 41.0 °F 32.2 °F 19.4 °F 42% 30.14 in 10.0 mi South 18.4 mph - N/A   Clear
12:55 PM 42.8 °F 34.5 °F 21.2 °F 42% 30.13 in 10.0 mi SSW 18.4 mph 26.5 mph N/A   Clear
1:15 PM 44.6 °F 36.9 °F 23.0 °F 43% 30.12 in 10.0 mi SW 18.4 mph 25.3 mph N/A   Clear
1:35 PM 46.4 °F 39.2 °F 23.0 °F 40% 30.10 in 10.0 mi SSW 18.4 mph - N/A   Clear
1:55 PM 46.4 °F 39.8 °F 24.8 °F 43% 30.09 in 10.0 mi SW 16.1 mph 24.2 mph N/A   Clear
2:15 PM 48.2 °F - 24.8 °F 40% 30.07 in 10.0 mi SSW 16.1 mph 23.0 mph N/A   Clear
2:35 PM 48.2 °F - 26.6 °F 43% 30.05 in 10.0 mi SSW 16.1 mph 25.3 mph N/A   Clear
2:55 PM 50.0 °F - 26.6 °F 40% 30.05 in 10.0 mi SSW 15.0 mph 23.0 mph N/A   Clear
3:15 PM 50.0 °F - 26.6 °F 40% 30.04 in 10.0 mi SW 13.8 mph 19.6 mph N/A   Clear
3:35 PM 51.8 °F - 26.6 °F 38% 30.03 in 10.0 mi SW 10.4 mph - N/A   Clear
3:55 PM 51.8 °F - 26.6 °F 38% 30.03 in 10.0 mi SW 10.4 mph - N/A   Clear
4:15 PM 53.6 °F - 26.6 °F 35% 30.03 in 10.0 mi SW 12.7 mph 18.4 mph N/A   Clear
4:35 PM 53.6 °F - 24.8 °F 33% 30.03 in 10.0 mi WSW 11.5 mph - N/A   Clear
4:55 PM 53.6 °F - 24.8 °F 33% 30.03 in 10.0 mi SW 6.9 mph - N/A   Clear
5:15 PM 53.6 °F - 23.0 °F 30% 30.03 in 10.0 mi WSW 4.6 mph - N/A   Clear
5:35 PM 53.6 °F - 23.0 °F 30% 30.03 in 10.0 mi WSW 3.5 mph - N/A   Clear
5:55 PM 50.0 °F - 23.0 °F 35% 30.03 in 10.0 mi Calm Calm - N/A   Clear
6:15 PM 51.8 °F - 23.0 °F 33% 30.03 in 10.0 mi Calm Calm - N/A   Clear
6:35 PM 46.4 °F 44.3 °F 23.0 °F 40% 30.04 in 10.0 mi SE 4.6 mph - N/A   Clear
6:55 PM 42.8 °F 38.6 °F 21.2 °F 42% 30.05 in 10.0 mi ESE 6.9 mph - N/A   Clear
7:15 PM 37.4 °F 32.8 °F 21.2 °F 52% 30.06 in 10.0 mi SE 5.8 mph - N/A   Clear
7:55 PM 35.6 °F 29.9 °F 21.2 °F 56% 30.09 in 10.0 mi South 6.9 mph - N/A   Clear
8:15 PM 33.8 °F 26.4 °F 21.2 °F 60% 30.09 in 10.0 mi South 9.2 mph - N/A   Clear
8:35 PM 32.0 °F 24.2 °F 21.2 °F 64% 30.10 in 10.0 mi South 9.2 mph - N/A   Clear
8:55 PM 32.0 °F 25.6 °F 21.2 °F 64% 30.10 in 10.0 mi South 6.9 mph - N/A   Clear
9:15 PM 32.0 °F 24.8 °F 21.2 °F 64% 30.10 in 10.0 mi SSW 8.1 mph - N/A   Clear
9:35 PM 30.2 °F 22.6 °F 21.2 °F 69% 30.11 in 10.0 mi South 8.1 mph - N/A   Clear
9:55 PM 30.2 °F 21.9 °F 21.2 °F 69% 30.11 in 10.0 mi South 9.2 mph - N/A   Clear
10:15 PM 28.4 °F 21.2 °F 21.2 °F 74% 30.11 in 10.0 mi SSW 6.9 mph - N/A   Clear
10:35 PM 28.4 °F 20.4 °F 19.4 °F 69% 30.12 in 10.0 mi SW 8.1 mph - N/A   Clear
10:55 PM 28.4 °F 20.4 °F 19.4 °F 69% 30.12 in 10.0 mi SW 8.1 mph - N/A   Clear
11:15 PM 30.2 °F 23.4 °F 21.2 °F 69% 30.12 in 10.0 mi SW 6.9 mph - N/A   Clear
11:55 PM 32.0 °F 27.5 °F 23.0 °F 69% 30.13 in 10.0 mi West 4.6 mph - N/A   Clear